Silver Creek Plunge, Idaho
Current Conditions -  °F | °C
As of 6:53 AM on Sunday 21 Dec 2014 (Local Time) from KBOI Reporting Station
Overcast Overcast  
Wind Chill: 39°   Ceiling: 4300
Heat Index: 43°   Visibility: 10mi
Dew Point: 40°   Wind: 6mph
Humidity: 89%   Direction: 120°ESE
Pressure: 29.84"   Gusts: NA
Location:  44.07°N, 115.488°W
Report Text: KBOI 211353Z 12005KT 10SM OVC043 06/04 A2984 RMK AO2 SLP110 T00610044
Loading
Personal Weather Stations






























Interactive Weather Map New forecast layout! Learn more

10-Day Weather Forecast

Advertisements
Track Severe Weather on mobile